GDM weather

Gardner Municipal Airport
Gardner, Massachusetts, United States

Public forecast

Using degrees Fahrenheit for public forecast. Weather courtesy of forecast.io.

Closest aviation weather report (METAR) to Gardner Municipal Airport

Closest report is Fitchburg Municipal Airport, 11.4 nm (21.1 km) E. Retrieved 2019/10/20 04:52 UTC (59 minutes ago):

KFIT 200452Z AUTO 00000KT 10SM CLR 02/00 A3007 RMK AO2 SLP184 T00220000 401611006

Closest aviation forecast (TAF) to Gardner Municipal Airport

Closest forecast is Worcester Regional Airport, 18.1 nm (33.5 km) SSE. Retrieved 2019-10-20 00:22 UTC (5 hours ago):

TAF KORH 192320Z 2000/2024 28004KT P6SM SKC FM200500 32005KT P6SM FEW250 FM201600 17006KT P6SM BKN120